createdAt,value
2023-01-29T00:01:45.793Z,99883.63
2023-01-29T00:04:16.732Z,99890.69
2023-01-29T00:06:44.570Z,99879.56
2023-01-29T00:09:15.368Z,99886.56
2023-01-29T00:11:43.609Z,99894.19
2023-01-29T00:14:14.388Z,99885.41
2023-01-29T00:16:43.839Z,99876.31
2023-01-29T00:19:12.957Z,99886.53
2023-01-29T00:21:40.739Z,99888.50
2023-01-29T00:24:08.831Z,99888.41
2023-01-29T00:26:37.413Z,99887.13
2023-01-29T00:29:05.323Z,99887.97
2023-01-29T00:31:36.778Z,99883.31
2023-01-29T00:34:07.451Z,99885.81
2023-01-29T00:36:40.056Z,99887.44
2023-01-29T00:39:10.893Z,99884.06
2023-01-29T00:41:57.026Z,99882.25
2023-01-29T00:44:42.450Z,99885.22
2023-01-29T00:47:27.149Z,99892.56
2023-01-29T00:49:56.218Z,99898.56
2023-01-29T00:52:25.567Z,99886.03
2023-01-29T00:54:54.086Z,99895.56
2023-01-29T00:57:23.737Z,99885.81
2023-01-29T00:59:51.706Z,99886.50
2023-01-29T01:02:37.895Z,99886.09
2023-01-29T01:05:07.771Z,99885.53
2023-01-29T01:07:36.897Z,99892.03
2023-01-29T01:10:22.590Z,99881.19
2023-01-29T01:12:54.429Z,99882.28
2023-01-29T01:15:23.623Z,99879.28
2023-01-29T01:17:55.395Z,99876.28
2023-01-29T01:20:27.991Z,99874.94
2023-01-29T01:22:58.115Z,99876.28
2023-01-29T01:25:29.882Z,99886.53
2023-01-29T01:30:30.096Z,99886.78
2023-01-29T01:32:58.011Z,99891.94
2023-01-29T01:35:28.318Z,99885.91
2023-01-29T01:38:00.231Z,99886.44
2023-01-29T01:40:31.539Z,99880.31
2023-01-29T01:43:03.076Z,99884.56
2023-01-29T01:45:37.410Z,99884.91
2023-01-29T01:48:12.899Z,99886.09
2023-01-29T01:50:51.553Z,99879.03
2023-01-29T01:53:27.091Z,99876.19
2023-01-29T01:56:04.558Z,99868.78
2023-01-29T01:58:41.071Z,99872.06
2023-01-29T02:01:10.489Z,99871.31
2023-01-29T02:04:02.560Z,99874.06
2023-01-29T02:06:52.332Z,99870.84
2023-01-29T02:09:38.106Z,99878.72
2023-01-29T02:12:08.881Z,99889.84
2023-01-29T02:14:40.626Z,99877.88
2023-01-29T02:17:13.465Z,99879.78
2023-01-29T02:19:51.465Z,99874.19
2023-01-29T02:22:39.049Z,99884.59
2023-01-29T02:25:59.259Z,99885.19
2023-01-29T02:28:41.451Z,99889.03
2023-01-29T02:31:29.341Z,99884.59
2023-01-29T02:34:13.489Z,99887.66
2023-01-29T02:36:51.451Z,99882.72
2023-01-29T02:39:29.582Z,99881.19
2023-01-29T02:42:02.529Z,99879.53
2023-01-29T02:44:39.284Z,99874.38
2023-01-29T02:47:20.025Z,99871.31
2023-01-29T02:50:02.153Z,99873.84
2023-01-29T02:52:41.949Z,99876.28
2023-01-29T02:55:19.805Z,99874.72
2023-01-29T02:57:56.196Z,99872.75
2023-01-29T03:00:28.843Z,99877.31
2023-01-29T03:03:09.968Z,99879.78
2023-01-29T03:05:45.108Z,99865.16
2023-01-29T03:08:19.423Z,99877.38
2023-01-29T03:10:53.646Z,99876.50
2023-01-29T03:13:30.365Z,99880.88
2023-01-29T03:16:03.365Z,99868.03
2023-01-29T03:18:46.225Z,99877.44
2023-01-29T03:21:37.543Z,99873.50
2023-01-29T03:24:27.324Z,99873.38
2023-01-29T03:27:13.074Z,99866.53
2023-01-29T03:30:05.864Z,99868.38
2023-01-29T03:32:52.372Z,99878.38
2023-01-29T03:35:33.470Z,99867.84
2023-01-29T03:38:02.080Z,99876.50
2023-01-29T03:40:36.388Z,99871.44
2023-01-29T03:43:12.441Z,99874.91
2023-01-29T03:45:51.090Z,99868.16
2023-01-29T03:48:32.975Z,99862.75
2023-01-29T03:51:06.932Z,99873.56
2023-01-29T03:53:43.889Z,99868.50
2023-01-29T03:56:26.558Z,99873.19
2023-01-29T03:59:00.249Z,99864.16
2023-01-29T04:01:47.502Z,99875.72
2023-01-29T04:04:23.582Z,99875.63
2023-01-29T04:06:54.042Z,99872.75
2023-01-29T04:09:26.341Z,99874.94
2023-01-29T04:12:01.941Z,99870.59
2023-01-29T04:14:32.899Z,99877.28
2023-01-29T04:17:04.646Z,99877.09
2023-01-29T04:19:42.437Z,99872.34
2023-01-29T04:22:16.912Z,99871.75
2023-01-29T04:24:45.844Z,99878.25
2023-01-29T04:27:27.238Z,99876.13
2023-01-29T04:30:10.135Z,99881.47
2023-01-29T04:32:48.219Z,99880.38
2023-01-29T04:35:27.320Z,99874.09
2023-01-29T04:38:07.467Z,99880.44
2023-01-29T04:40:44.692Z,99883.31
2023-01-29T04:43:20.652Z,99881.28
2023-01-29T04:45:58.320Z,99880.28
2023-01-29T04:48:29.894Z,99882.28
2023-01-29T04:51:08.105Z,99892.03
2023-01-29T04:53:45.296Z,99889.53
2023-01-29T04:56:21.920Z,99882.34
2023-01-29T04:58:55.243Z,99886.81
2023-01-29T05:01:26.299Z,99881.63
2023-01-29T05:03:56.918Z,99868.94
2023-01-29T05:06:27.220Z,99874.59
2023-01-29T05:08:56.505Z,99872.19
2023-01-29T05:11:25.808Z,99873.25
2023-01-29T05:13:53.672Z,99877.72
2023-01-29T05:16:26.742Z,99886.25
2023-01-29T05:18:54.846Z,99895.56
2023-01-29T05:21:24.602Z,99892.41
2023-01-29T05:27:08.037Z,99895.44
2023-01-29T05:29:36.032Z,99881.09
2023-01-29T05:32:04.053Z,99892.84
2023-01-29T05:34:31.859Z,99892.09
2023-01-29T05:36:59.596Z,99884.28
2023-01-29T05:39:27.371Z,99861.94
2023-01-29T05:41:56.784Z,99837.50
2023-01-29T05:44:25.757Z,99830.72
2023-01-29T05:46:53.509Z,99832.03
2023-01-29T05:49:22.548Z,99838.22
2023-01-29T05:51:52.058Z,99847.94
2023-01-29T05:54:19.868Z,99859.09
2023-01-29T05:56:47.673Z,99862.28
2023-01-29T05:59:17.771Z,99851.25
2023-01-29T06:01:45.653Z,99858.91
2023-01-29T06:04:13.437Z,99867.41
2023-01-29T06:06:41.325Z,99866.72
2023-01-29T06:09:11.604Z,99858.09
2023-01-29T06:11:39.404Z,99856.19
2023-01-29T06:14:07.234Z,99861.25
2023-01-29T06:16:36.421Z,99857.16
2023-01-29T06:19:04.237Z,99849.16
2023-01-29T06:21:32.004Z,99855.41
2023-01-29T06:23:59.786Z,99860.50
2023-01-29T06:26:27.545Z,99861.09
2023-01-29T06:28:55.346Z,99865.75
2023-01-29T06:31:37.228Z,99867.69
2023-01-29T06:34:07.398Z,99858.09
2023-01-29T06:36:36.676Z,99859.59
2023-01-29T06:39:04.993Z,99856.09
2023-01-29T06:41:33.651Z,99858.69
2023-01-29T06:44:01.509Z,99854.56
2023-01-29T06:46:29.308Z,99860.28
2023-01-29T06:48:59.648Z,99865.75
2023-01-29T06:51:28.744Z,99868.13
2023-01-29T06:53:56.535Z,99864.19
2023-01-29T06:56:24.945Z,99872.66
2023-01-29T06:58:52.778Z,99864.00
2023-01-29T07:01:34.720Z,99871.81
2023-01-29T07:04:04.210Z,99865.72
2023-01-29T07:06:33.696Z,99867.09
2023-01-29T07:09:01.570Z,99867.91
2023-01-29T07:11:29.333Z,99868.53
2023-01-29T07:13:57.300Z,99876.84
2023-01-29T07:16:26.353Z,99884.41
2023-01-29T07:18:54.484Z,99879.56
2023-01-29T07:21:22.173Z,99874.13
2023-01-29T07:23:51.347Z,99887.63
2023-01-29T07:26:19.191Z,99886.09
2023-01-29T07:28:47.032Z,99895.28
2023-01-29T07:31:15.785Z,99890.16
2023-01-29T07:33:45.208Z,99893.66
2023-01-29T07:36:14.203Z,99897.22
2023-01-29T07:38:42.290Z,99894.75
2023-01-29T07:41:12.801Z,99892.56
2023-01-29T07:43:40.699Z,99889.34
2023-01-29T07:46:09.383Z,99898.81
2023-01-29T07:48:37.192Z,99902.16
2023-01-29T07:51:05.194Z,99907.16
2023-01-29T07:53:33.134Z,99902.97
2023-01-29T07:56:01.218Z,99903.03
2023-01-29T07:58:30.379Z,99916.81
2023-01-29T08:00:58.129Z,99916.50
2023-01-29T08:03:25.999Z,99923.81
2023-01-29T08:05:53.767Z,99923.78
2023-01-29T08:08:21.540Z,99933.59
2023-01-29T08:10:49.295Z,99935.00
2023-01-29T08:13:17.124Z,99938.97
2023-01-29T08:15:46.462Z,99927.09
2023-01-29T08:18:15.041Z,99932.13
2023-01-29T08:20:43.940Z,99928.34
2023-01-29T08:23:14.965Z,99936.63
2023-01-29T08:25:42.943Z,99927.72
2023-01-29T08:28:12.323Z,99940.09
2023-01-29T08:30:40.735Z,99931.13
2023-01-29T08:33:09.948Z,99936.56
2023-01-29T08:35:37.960Z,99937.13
2023-01-29T08:38:06.587Z,99943.34
2023-01-29T08:40:35.850Z,99941.47
2023-01-29T08:43:07.026Z,99931.41
2023-01-29T08:45:38.232Z,99938.47
2023-01-29T08:48:06.577Z,99938.47
2023-01-29T08:50:35.984Z,99936.09
2023-01-29T08:53:07.627Z,99936.06
2023-01-29T08:55:37.378Z,99937.75
2023-01-29T08:58:05.395Z,99936.06
2023-01-29T09:00:33.588Z,99936.56
2023-01-29T09:03:01.416Z,99941.19
2023-01-29T09:05:29.710Z,99942.25
2023-01-29T09:07:59.347Z,99947.44
2023-01-29T09:10:30.244Z,99952.53
2023-01-29T09:12:58.526Z,99950.34
2023-01-29T09:15:26.421Z,99948.97
2023-01-29T09:17:54.529Z,99945.41
2023-01-29T09:20:24.904Z,99947.97
2023-01-29T09:22:53.721Z,99956.63
2023-01-29T09:25:22.830Z,99960.19
2023-01-29T09:27:50.551Z,99953.00
2023-01-29T09:30:19.481Z,99955.09
2023-01-29T09:32:55.106Z,99953.81
2023-01-29T09:35:23.257Z,99943.19
2023-01-29T09:37:51.911Z,99923.16
2023-01-29T09:40:29.212Z,99921.06
2023-01-29T09:43:02.850Z,99927.59
2023-01-29T09:45:31.476Z,99917.09
2023-01-29T09:48:03.282Z,99918.41
2023-01-29T09:50:35.074Z,99905.41
2023-01-29T09:53:09.741Z,99895.13
2023-01-29T09:55:44.845Z,99897.34
2023-01-29T09:58:20.426Z,99878.81
2023-01-29T10:00:58.297Z,99888.00
2023-01-29T10:03:44.800Z,99895.69
2023-01-29T10:06:29.296Z,99891.66
2023-01-29T10:09:31.213Z,99894.34
2023-01-29T10:12:11.943Z,99904.28
2023-01-29T10:14:49.745Z,99901.97
2023-01-29T10:17:37.820Z,99893.59
2023-01-29T10:20:34.659Z,99884.22
2023-01-29T10:23:14.954Z,99893.25
2023-01-29T10:25:45.380Z,99882.44
2023-01-29T10:28:19.491Z,99895.88
2023-01-29T10:30:50.638Z,99892.53
2023-01-29T10:33:23.580Z,99902.31
2023-01-29T10:35:57.963Z,99891.44
2023-01-29T10:38:36.290Z,99896.38
2023-01-29T10:41:18.994Z,99906.44
2023-01-29T10:43:59.964Z,99908.63
2023-01-29T10:46:41.940Z,99918.91
2023-01-29T10:49:26.846Z,99909.13
2023-01-29T10:52:08.511Z,99899.09
2023-01-29T10:55:00.317Z,99894.84
2023-01-29T10:57:43.175Z,99901.81
2023-01-29T11:00:20.378Z,99902.09
2023-01-29T11:02:50.368Z,99899.88
2023-01-29T11:05:24.717Z,99894.22
2023-01-29T11:08:03.880Z,99897.47
2023-01-29T11:10:37.685Z,99899.38
2023-01-29T11:13:06.406Z,99891.22
2023-01-29T11:15:35.867Z,99878.03
2023-01-29T11:18:06.615Z,99876.28
2023-01-29T11:20:35.357Z,99866.88
2023-01-29T11:23:03.139Z,99858.06
2023-01-29T11:25:32.646Z,99845.81
2023-01-29T11:28:02.789Z,99845.56
2023-01-29T11:30:32.562Z,99839.06
2023-01-29T11:33:09.969Z,99849.97
2023-01-29T11:35:38.275Z,99849.06
2023-01-29T11:38:19.454Z,99846.16
2023-01-29T11:40:47.564Z,99837.75
2023-01-29T11:43:40.337Z,99827.97
2023-01-29T11:46:14.313Z,99833.28
2023-01-29T11:48:46.032Z,99838.16
2023-01-29T11:51:22.836Z,99830.81
2023-01-29T11:53:53.671Z,99821.97
2023-01-29T11:56:24.715Z,99816.84
2023-01-29T11:58:56.303Z,99809.34
2023-01-29T12:01:31.798Z,99807.09
2023-01-29T12:04:02.110Z,99798.72
2023-01-29T12:06:36.951Z,99795.16
2023-01-29T12:09:14.463Z,99788.78
2023-01-29T12:11:43.888Z,99795.78
2023-01-29T12:14:28.201Z,99782.25
2023-01-29T12:17:00.521Z,99779.56
2023-01-29T12:19:36.428Z,99767.91
2023-01-29T12:22:10.145Z,99762.56
2023-01-29T12:24:45.656Z,99754.38
2023-01-29T12:27:25.930Z,99759.94
2023-01-29T12:30:02.274Z,99757.38
2023-01-29T12:32:38.702Z,99756.09
2023-01-29T12:35:15.589Z,99741.59
2023-01-29T12:37:50.110Z,99732.53
2023-01-29T12:40:20.023Z,99727.09
2023-01-29T12:42:52.293Z,99726.69
2023-01-29T12:45:22.909Z,99711.19
2023-01-29T12:47:53.780Z,99712.41
2023-01-29T12:50:27.341Z,99710.44
2023-01-29T12:53:00.202Z,99710.25
2023-01-29T12:55:35.867Z,99712.41
2023-01-29T12:58:05.529Z,99709.03
2023-01-29T13:00:36.622Z,99711.63
2023-01-29T13:03:16.098Z,99700.25
2023-01-29T13:05:48.340Z,99696.47
2023-01-29T13:08:21.779Z,99691.78
2023-01-29T13:10:52.239Z,99692.88
2023-01-29T13:13:28.813Z,99690.56
2023-01-29T13:16:00.211Z,99687.84
2023-01-29T13:18:38.768Z,99686.41
2023-01-29T13:21:14.451Z,99698.06
2023-01-29T13:23:47.031Z,99701.47
2023-01-29T13:26:18.930Z,99702.63
2023-01-29T13:28:47.918Z,99695.03
2023-01-29T13:31:28.541Z,99697.72
2023-01-29T13:34:08.742Z,99692.81
2023-01-29T13:36:43.215Z,99701.97
2023-01-29T13:39:17.396Z,99698.75
2023-01-29T13:41:45.476Z,99693.06
2023-01-29T13:44:23.339Z,99696.44
2023-01-29T13:46:55.685Z,99692.25
2023-01-29T13:49:31.299Z,99687.38
2023-01-29T13:52:14.940Z,99686.59
2023-01-29T13:54:52.651Z,99689.31
2023-01-29T13:57:37.102Z,99687.94
2023-01-29T14:00:06.488Z,99691.66
2023-01-29T14:02:34.430Z,99686.31
2023-01-29T14:05:39.950Z,99681.88
2023-01-29T14:08:47.833Z,99675.38
2023-01-29T14:11:37.729Z,99671.03
2023-01-29T14:14:43.889Z,99664.44
2023-01-29T14:17:11.712Z,99675.38
2023-01-29T14:19:39.679Z,99667.13
2023-01-29T14:22:07.456Z,99670.88
2023-01-29T14:24:36.669Z,99661.25
2023-01-29T14:27:04.694Z,99664.03
2023-01-29T14:29:40.999Z,99656.75
2023-01-29T14:32:16.072Z,99658.09
2023-01-29T14:34:50.400Z,99660.88
2023-01-29T14:37:26.099Z,99658.03
2023-01-29T14:39:59.106Z,99654.63
2023-01-29T14:42:30.220Z,99650.69
2023-01-29T14:45:01.240Z,99652.16
2023-01-29T14:47:54.811Z,99649.13
2023-01-29T14:50:48.081Z,99647.59
2023-01-29T14:53:22.330Z,99642.72
2023-01-29T14:55:59.715Z,99644.53
2023-01-29T14:58:36.035Z,99648.53
2023-01-29T15:01:07.923Z,99657.56
2023-01-29T15:03:42.855Z,99665.56
2023-01-29T15:06:17.139Z,99661.91
2023-01-29T15:08:51.902Z,99668.81
2023-01-29T15:11:37.019Z,99672.66
2023-01-29T15:14:18.853Z,99676.19
2023-01-29T15:16:54.697Z,99668.84
2023-01-29T15:19:27.449Z,99670.91
2023-01-29T15:22:14.514Z,99673.28
2023-01-29T15:24:44.036Z,99666.69
2023-01-29T15:27:16.761Z,99661.16
2023-01-29T15:29:49.566Z,99660.25
2023-01-29T15:32:29.415Z,99669.72
2023-01-29T15:34:58.766Z,99666.25
2023-01-29T15:37:29.210Z,99664.41
2023-01-29T15:39:58.241Z,99659.56
2023-01-29T15:42:30.022Z,99653.88
2023-01-29T15:44:57.792Z,99657.13
2023-01-29T15:47:29.271Z,99651.09
2023-01-29T15:49:58.350Z,99655.13
2023-01-29T15:52:29.323Z,99646.81
2023-01-29T15:54:58.911Z,99646.53
2023-01-29T15:57:34.233Z,99646.59
2023-01-29T16:00:03.139Z,99648.78
2023-01-29T16:02:40.937Z,99644.69
2023-01-29T16:05:15.530Z,99657.72
2023-01-29T16:07:44.773Z,99651.22
2023-01-29T16:10:19.797Z,99652.53
2023-01-29T16:12:51.760Z,99652.56
2023-01-29T16:15:29.796Z,99652.53
2023-01-29T16:17:58.157Z,99650.66
2023-01-29T16:20:34.299Z,99655.00
2023-01-29T16:23:02.179Z,99649.31
2023-01-29T16:25:31.399Z,99650.94
2023-01-29T16:28:05.214Z,99655.81
2023-01-29T16:30:33.471Z,99662.03
2023-01-29T16:33:05.894Z,99656.63
2023-01-29T16:35:35.361Z,99658.78
2023-01-29T16:38:07.504Z,99662.56
2023-01-29T16:40:38.074Z,99659.56
2023-01-29T16:43:49.461Z,99662.28
2023-01-29T16:46:28.285Z,99664.16
2023-01-29T16:48:56.119Z,99669.88
2023-01-29T16:51:27.789Z,99667.66
2023-01-29T16:54:07.400Z,99673.88
2023-01-29T16:56:36.183Z,99677.19
2023-01-29T16:59:07.562Z,99675.31
2023-01-29T17:01:37.371Z,99668.50
2023-01-29T17:04:11.351Z,99677.16
2023-01-29T17:06:41.490Z,99662.53
2023-01-29T17:09:09.650Z,99665.75
2023-01-29T17:11:39.589Z,99666.59
2023-01-29T17:14:11.330Z,99664.06
2023-01-29T17:16:50.738Z,99653.03
2023-01-29T17:19:20.687Z,99654.13
2023-01-29T17:21:48.661Z,99653.56
2023-01-29T17:24:16.409Z,99655.69
2023-01-29T17:26:44.569Z,99654.00
2023-01-29T17:29:18.532Z,99647.75
2023-01-29T17:31:46.396Z,99661.78
2023-01-29T17:34:15.676Z,99647.69
2023-01-29T17:36:44.350Z,99646.66
2023-01-29T17:39:17.740Z,99651.97
2023-01-29T17:41:48.226Z,99647.91
2023-01-29T17:44:17.681Z,99649.16
2023-01-29T17:46:46.118Z,99647.72
2023-01-29T17:49:23.280Z,99647.91
2023-01-29T17:51:51.575Z,99653.78
2023-01-29T17:54:19.467Z,99650.00
2023-01-29T17:56:48.063Z,99640.22
2023-01-29T17:59:18.944Z,99640.44
2023-01-29T18:01:47.487Z,99651.19
2023-01-29T18:04:15.717Z,99645.88
2023-01-29T18:06:45.311Z,99651.84
2023-01-29T18:09:15.027Z,99654.47
2023-01-29T18:11:43.178Z,99647.41
2023-01-29T18:14:14.116Z,99636.63
2023-01-29T18:16:47.628Z,99649.13
2023-01-29T18:19:19.727Z,99644.31
2023-01-29T18:21:47.659Z,99640.50
2023-01-29T18:24:15.422Z,99642.03
2023-01-29T18:26:43.633Z,99636.13
2023-01-29T18:29:11.469Z,99637.44
2023-01-29T18:31:39.634Z,99635.31
2023-01-29T18:34:08.914Z,99630.22
2023-01-29T18:36:36.693Z,99636.41
2023-01-29T18:39:04.703Z,99624.75
2023-01-29T18:41:32.491Z,99628.94
2023-01-29T18:44:00.143Z,99632.34
2023-01-29T18:46:27.914Z,99635.56
2023-01-29T18:48:55.670Z,99635.13
2023-01-29T18:51:24.811Z,99639.31
2023-01-29T18:53:53.060Z,99638.03
2023-01-29T18:56:20.973Z,99639.47
2023-01-29T18:58:51.971Z,99641.53
2023-01-29T19:01:20.970Z,99650.72
2023-01-29T19:03:48.767Z,99643.63
2023-01-29T19:06:16.477Z,99657.19
2023-01-29T19:08:45.598Z,99650.97
2023-01-29T19:11:13.359Z,99660.91
2023-01-29T19:13:42.799Z,99662.22
2023-01-29T19:16:12.523Z,99669.00
2023-01-29T19:18:40.886Z,99671.94
2023-01-29T19:21:10.073Z,99670.47
2023-01-29T19:23:38.014Z,99670.97
2023-01-29T19:26:07.634Z,99673.09
2023-01-29T19:28:35.574Z,99669.03
2023-01-29T19:31:03.869Z,99668.00
2023-01-29T19:33:31.658Z,99675.34
2023-01-29T19:35:59.907Z,99675.06
2023-01-29T19:38:28.103Z,99673.91
2023-01-29T19:40:56.190Z,99668.94
2023-01-29T19:43:25.333Z,99661.91
2023-01-29T19:45:58.894Z,99651.47
2023-01-29T19:48:26.710Z,99649.81
2023-01-29T19:50:55.201Z,99650.63
2023-01-29T19:53:23.258Z,99648.78
2023-01-29T19:55:58.701Z,99644.13
2023-01-29T19:58:28.384Z,99639.00
2023-01-29T20:00:57.361Z,99641.72
2023-01-29T20:03:25.694Z,99642.28
2023-01-29T20:05:53.738Z,99645.75
2023-01-29T20:08:22.280Z,99645.13
2023-01-29T20:10:50.601Z,99644.53
2023-01-29T20:13:18.439Z,99627.22
2023-01-29T20:15:47.898Z,99630.06
2023-01-29T20:18:16.605Z,99631.06
2023-01-29T20:20:46.448Z,99638.06
2023-01-29T20:23:22.344Z,99637.69
2023-01-29T20:26:00.434Z,99628.72
2023-01-29T20:28:28.321Z,99629.97
2023-01-29T20:30:59.195Z,99631.28
2023-01-29T20:33:37.028Z,99618.06
2023-01-29T20:36:09.202Z,99617.34
2023-01-29T20:38:40.782Z,99616.38
2023-01-29T20:41:14.882Z,99618.19
2023-01-29T20:43:43.901Z,99614.25
2023-01-29T20:46:16.426Z,99614.47
2023-01-29T20:48:50.535Z,99607.44
2023-01-29T20:51:19.489Z,99600.06
2023-01-29T20:53:48.542Z,99599.66
2023-01-29T20:56:17.842Z,99601.00
2023-01-29T20:58:46.551Z,99602.06
2023-01-29T21:01:20.788Z,99601.06
2023-01-29T21:03:49.255Z,99597.41
2023-01-29T21:06:16.953Z,99592.31
2023-01-29T21:08:44.816Z,99595.63
2023-01-29T21:11:12.625Z,99593.28
2023-01-29T21:13:40.514Z,99611.09
2023-01-29T21:16:10.768Z,99609.97
2023-01-29T21:18:40.379Z,99609.78
2023-01-29T21:21:08.321Z,99611.75
2023-01-29T21:23:36.153Z,99604.66
2023-01-29T21:26:05.183Z,99615.81
2023-01-29T21:28:33.255Z,99607.25
2023-01-29T21:31:05.589Z,99610.19
2023-01-29T21:33:34.361Z,99608.06
2023-01-29T21:36:04.341Z,99608.78
2023-01-29T21:38:32.356Z,99602.31
2023-01-29T21:41:01.115Z,99596.81
2023-01-29T21:43:27.920Z,99600.56
2023-01-29T21:45:56.580Z,99598.03
2023-01-29T21:48:24.392Z,99596.16
2023-01-29T21:50:52.426Z,99588.78
2023-01-29T21:53:21.711Z,99589.03
2023-01-29T21:55:49.588Z,99581.50
2023-01-29T21:58:17.337Z,99586.09
2023-01-29T22:00:48.702Z,99580.31
2023-01-29T22:03:16.726Z,99592.50
2023-01-29T22:05:44.485Z,99593.47
2023-01-29T22:08:12.221Z,99590.91
2023-01-29T22:10:41.586Z,99587.16
2023-01-29T22:13:09.540Z,99587.91
2023-01-29T22:15:37.242Z,99595.56
2023-01-29T22:18:05.299Z,99599.03
2023-01-29T22:20:33.031Z,99594.09
2023-01-29T22:23:01.239Z,99591.78
2023-01-29T22:25:29.143Z,99597.81
2023-01-29T22:27:58.201Z,99585.75
2023-01-29T22:30:26.052Z,99582.53
2023-01-29T22:32:53.767Z,99574.50
2023-01-29T22:35:22.444Z,99565.66
2023-01-29T22:37:50.161Z,99562.16
2023-01-29T22:40:18.489Z,99551.09
2023-01-29T22:42:46.335Z,99540.06
2023-01-29T22:45:16.074Z,99536.97
2023-01-29T22:47:43.816Z,99533.28
2023-01-29T22:50:12.848Z,99529.13
2023-01-29T22:52:42.878Z,99521.97
2023-01-29T22:55:11.923Z,99510.88
2023-01-29T22:57:40.525Z,99505.94
2023-01-29T23:00:11.693Z,99495.69
2023-01-29T23:02:44.143Z,99486.84
2023-01-29T23:05:11.862Z,99490.88
2023-01-29T23:07:39.622Z,99492.66
2023-01-29T23:10:08.629Z,99491.41
2023-01-29T23:12:36.372Z,99495.56
2023-01-29T23:15:04.419Z,99486.59
2023-01-29T23:17:32.140Z,99482.16
2023-01-29T23:20:01.251Z,99495.09
2023-01-29T23:22:28.942Z,99493.91
2023-01-29T23:24:57.404Z,99504.31
2023-01-29T23:27:24.132Z,99501.47
2023-01-29T23:29:51.874Z,99501.59
2023-01-29T23:32:21.417Z,99487.94
2023-01-29T23:34:49.237Z,99481.81
2023-01-29T23:37:18.273Z,99479.44
2023-01-29T23:39:45.921Z,99468.09
2023-01-29T23:42:13.749Z,99470.75
2023-01-29T23:44:41.738Z,99475.50
2023-01-29T23:47:09.637Z,99466.84
2023-01-29T23:49:37.401Z,99458.41
2023-01-29T23:52:05.209Z,99456.66
2023-01-29T23:54:34.286Z,99447.06
2023-01-29T23:57:01.915Z,99439.38
2023-01-29T23:59:29.763Z,99428.25
